NATURA VA

 INFORMACIÓN METAR y TAF
METAR FOR GMME
ADDS - METARS form results

(0036 UTC 20 May 2019)
Data provider http://aviationweather.gov/metar/data/
 
METAR text: GMME 200030Z 12002KT 7000 FEW016 12/10 Q1014 NOSIG
Conditions at: GMME (RABAT/SALE (RMAF, MA) observed 0030 UTC 20 May 2019
Temperature: 12.0°C (54°F)
Dewpoint: 10.0°C (50°F) [RH = 88%]
Pressure (altimeter): 29.94 inches Hg (1014.0 mb)
Winds: from the ESE (120 degrees) at 2 MPH (2 knots; 1.0 m/s)
Visibility: 4 miles ( 7 km)
Ceiling: at least 12,000 feet AGL
Clouds: few clouds at 1600 feet AGL
Weather: no significant weather observed at this time

METAR text: GMME 200000Z 14001KT 9000 NSC 12/10 Q1014 NOSIG
Conditions at: GMME (RABAT/SALE (RMAF, MA) observed 0000 UTC 20 May 2019
Temperature: 12.0°C (54°F)
Dewpoint: 10.0°C (50°F) [RH = 88%]
Pressure (altimeter): 29.94 inches Hg (1014.0 mb)
Winds: from the SE (140 degrees) at 1 MPH (1 knots; 0.5 m/s)
Visibility: 6 miles ( 9 km)
Ceiling: at least 12,000 feet AGL
Clouds: sky clear below 12,000 feet AGL
Weather: no significant weather observed at this time

Forecast for: GMME (RABAT/SALE (RMAF, MA)
Text: TAF GMME 192300Z 2000/2106 32010KT 8000 SCT026
Forecast period: 0000 UTC 20 May 2019 to 0600 UTC 21 May 2019
Forecast type: FROM: standard forecast or significant change
Winds: from the NW (320 degrees) at 12 MPH (10 knots; 5.1 m/s)
Visibility: 5 miles (8 km)
Ceiling: at least 12,000 feet AGL
Clouds: scattered clouds at 2600 feet AGL
Weather: no significant weather forecast for this period
Text: TEMPO 2000/2006 VRB02KT NSC
Forecast period: 0000 to 0600 UTC 20 May 2019
Forecast type: TEMPORARY: The following changes expected for less than half the time period
Winds: variable direction winds at 2 MPH (2 knots; 1.0 m/s)
Visibility: missing
Ceiling: unknown
Clouds: missing
Weather: no significant weather forecast for this period
Text: TEMPO 2012/2018 CAVOK
Forecast period: 1200 to 1800 UTC 20 May 2019
Forecast type: TEMPORARY: The following changes expected for less than half the time period
Visibility: 6 or more miles 10+ km)
Ceiling: unknown
Clouds: missing
Weather: NSW  (no significant weather)

 MAPA DE AEROPUERTO

 INFORMACIÓN DE PISTA
Pista 04 Longitud 11483 ft Ancho 148 ft
Elevación 273 ft Umbral desplazado 0 ft Rumbo de pista 31
Pista 22 Longitud 11483 ft Ancho 148 ft
Elevación 240 ft Umbral desplazado 0 ft Rumbo de pista 211

 FRECUANCIAS DEL AEROPUERTO
Tipo APP Nombre APP Frecuencia 118.9 MHZ
Tipo TWR Nombre TWR Frecuencia 118.3 MHZ

 RADIO AYUDAS DEL AEROPUERTO
Tipo VOR-DME Nombre Rabat Frecuencia 116500 KHZ
Tipo NDB Nombre Rabat Frecuencia 332 KHZ



Powered by Virtual Airlines Manager [v2.6.2]